Time;durP1;ratioP1;P1;durP2;ratioP2;P2;SDS_P1;SDS_P2;PMS_P1;PMS_P2;Temp;Humidity;BMP_temperature;BMP_pressure;BME280_temperature;BME280_humidity;BME280_pressure;Samples;Min_cycle;Max_cycle;Signal;HPM_P1;HPM_P2
2022/09/26 00:00:45;;;;;;;2.93;2.73;;;12.30;99.90;;;;;;5078860;28;20170;-77
2022/09/26 00:03:11;;;;;;;3.73;2.90;;;12.30;99.90;;;;;;5077776;28;20576;-77
2022/09/26 00:05:38;;;;;;;2.83;2.57;;;12.30;99.90;;;;;;5077326;28;20530;-77
2022/09/26 00:08:05;;;;;;;3.30;2.63;;;12.30;99.90;;;;;;5078100;28;20177;-78
2022/09/26 00:10:30;;;;;;;3.53;2.60;;;12.20;99.90;;;;;;5060488;28;20400;-77
2022/09/26 00:12:56;;;;;;;2.07;1.87;;;12.20;99.90;;;;;;5059405;28;20404;-77
2022/09/26 00:15:22;;;;;;;3.63;2.40;;;12.20;99.90;;;;;;5077781;28;20158;-77
2022/09/26 00:17:48;;;;;;;3.20;2.50;;;12.10;99.90;;;;;;5078282;28;20171;-77
2022/09/26 00:20:13;;;;;;;3.03;2.33;;;12.20;99.90;;;;;;5060199;28;20432;-77
2022/09/26 00:22:39;;;;;;;5.70;2.77;;;12.10;99.90;;;;;;5060604;28;20185;-78
2022/09/26 00:25:05;;;;;;;2.33;2.00;;;12.10;99.90;;;;;;5078863;28;20198;-77
2022/09/26 00:27:30;;;;;;;5.30;2.80;;;12.10;99.90;;;;;;5081390;28;20719;-78
2022/09/26 00:29:56;;;;;;;3.00;2.80;;;12.10;99.90;;;;;;5080896;28;20420;-78
2022/09/26 00:32:21;;;;;;;6.67;2.40;;;12.10;99.90;;;;;;5079574;28;20180;-78
2022/09/26 00:34:47;;;;;;;2.23;2.03;;;12.10;99.90;;;;;;5061617;28;20178;-78
2022/09/26 00:37:12;;;;;;;3.80;2.77;;;12.00;99.90;;;;;;5076064;28;20180;-77
2022/09/26 00:39:38;;;;;;;2.30;2.10;;;12.00;99.90;;;;;;5057705;28;20560;-77
2022/09/26 00:42:03;;;;;;;3.27;2.40;;;12.00;99.90;;;;;;5075392;28;20170;-77
2022/09/26 00:44:45;;;;;;;3.40;2.33;;;12.00;99.90;;;;;;5075467;28;20194;-77
2022/09/26 00:47:35;;;;;;;4.30;2.37;;;12.00;99.90;;;;;;5075599;28;20178;-77
2022/09/26 00:50:06;;;;;;;4.87;2.80;;;12.00;99.90;;;;;;5076088;28;20459;-77
2022/09/26 00:52:37;;;;;;;3.50;3.20;;;12.00;99.90;;;;;;5057946;28;20983;-77
2022/09/26 00:55:06;;;;;;;3.47;2.80;;;12.00;99.90;;;;;;5076079;28;20437;-77
2022/09/26 00:57:38;;;;;;;2.60;2.13;;;12.00;99.90;;;;;;5076933;28;20412;-77
2022/09/26 01:00:09;;;;;;;4.00;2.50;;;12.00;99.90;;;;;;5076746;28;20865;-78
2022/09/26 01:02:34;;;;;;;2.67;2.47;;;12.00;99.90;;;;;;5077741;28;20466;-78
2022/09/26 01:05:02;;;;;;;9.43;4.30;;;12.00;99.90;;;;;;5075089;28;20448;-77
2022/09/26 01:07:28;;;;;;;4.07;2.83;;;11.90;99.90;;;;;;5074971;28;20167;-76
2022/09/26 01:09:56;;;;;;;3.77;2.97;;;11.90;99.90;;;;;;5074922;28;20432;-77
2022/09/26 01:12:22;;;;;;;2.80;2.60;;;11.90;99.90;;;;;;5075028;28;20913;-77
2022/09/26 01:14:51;;;;;;;5.53;3.03;;;11.90;99.90;;;;;;5074925;28;20413;-77
2022/09/26 01:17:17;;;;;;;3.13;2.03;;;11.80;99.90;;;;;;5074856;28;20185;-77
2022/09/26 01:20:11;;;;;;;2.60;2.37;;;11.80;99.90;;;;;;5075176;28;20424;-77
2022/09/26 01:23:01;;;;;;;2.83;2.10;;;11.80;99.90;;;;;;5075388;28;20178;-77
2022/09/26 01:26:07;;;;;;;5.03;3.30;;;11.80;99.90;;;;;;5073945;28;20462;-77
2022/09/26 01:29:11;;;;;;;5.13;2.97;;;11.80;99.90;;;;;;5056134;28;20440;-77
2022/09/26 01:32:47;;;;;;;4.60;3.13;;;11.80;99.90;;;;;;5074224;28;20408;-77
2022/09/26 01:34:45;;;;;;;2.70;2.10;;;11.80;99.90;;;;;;5073873;28;20413;-77
2022/09/26 01:37:51;;;;;;;5.07;2.90;;;11.80;99.90;;;;;;5074049;28;20509;-77
2022/09/26 01:40:30;;;;;;;4.40;2.17;;;11.80;99.90;;;;;;5073819;28;20412;-77
2022/09/26 01:43:20;;;;;;;3.97;3.10;;;11.80;99.90;;;;;;5074504;28;20400;-77
2022/09/26 01:46:01;;;;;;;2.67;2.47;;;11.80;99.90;;;;;;5078957;28;20456;-77
2022/09/26 01:48:36;;;;;;;2.90;2.70;;;11.80;99.90;;;;;;5079712;28;20471;-76
2022/09/26 01:51:15;;;;;;;3.50;2.73;;;11.80;99.90;;;;;;5079943;28;20419;-77
2022/09/26 01:54:00;;;;;;;6.57;2.60;;;11.80;99.90;;;;;;5080589;28;20400;-77
2022/09/26 01:56:30;;;;;;;3.30;2.30;;;11.80;99.90;;;;;;5077703;28;20441;-77
2022/09/26 01:59:06;;;;;;;4.80;2.40;;;11.90;99.90;;;;;;5077816;28;20440;-77
2022/09/26 02:01:37;;;;;;;4.73;2.10;;;11.80;99.90;;;;;;5077644;28;20404;-76
2022/09/26 02:04:18;;;;;;;2.57;2.37;;;11.80;99.90;;;;;;5077130;28;20547;-77
2022/09/26 02:06:59;;;;;;;4.93;2.50;;;11.90;99.90;;;;;;5077841;28;20406;-77
2022/09/26 02:09:34;;;;;;;3.00;2.80;;;11.90;99.90;;;;;;5078132;28;20481;-77
2022/09/26 02:12:04;;;;;;;3.63;2.57;;;11.80;99.90;;;;;;5077786;28;20905;-77
2022/09/26 02:14:36;;;;;;;2.87;2.40;;;11.90;99.90;;;;;;5075337;28;20397;-77
2022/09/26 02:17:21;;;;;;;4.63;2.37;;;11.90;99.90;;;;;;5072755;28;20447;-77
2022/09/26 02:20:14;;;;;;;2.70;2.20;;;11.90;99.90;;;;;;5072765;28;20424;-77
2022/09/26 02:22:40;;;;;;;3.00;2.70;;;11.90;99.90;;;;;;5059300;28;20454;-76
2022/09/26 02:25:07;;;;;;;3.30;3.10;;;11.90;99.90;;;;;;5072339;28;20838;-77
2022/09/26 02:27:33;;;;;;;3.33;3.00;;;11.90;99.90;;;;;;5072880;28;20415;-77
2022/09/26 02:29:59;;;;;;;2.83;2.60;;;11.90;99.90;;;;;;5072281;28;20427;-76
2022/09/26 02:32:28;;;;;;;3.07;2.53;;;11.80;99.90;;;;;;5072774;28;20405;-77
2022/09/26 02:34:55;;;;;;;3.93;2.40;;;11.80;99.90;;;;;;5072290;28;20532;-76
2022/09/26 02:37:21;;;;;;;6.20;3.20;;;11.80;99.90;;;;;;5072808;28;20626;-77
2022/09/26 02:39:50;;;;;;;3.93;3.10;;;11.80;99.90;;;;;;5072650;28;20424;-77
2022/09/26 02:42:23;;;;;;;4.30;3.77;;;11.80;99.90;;;;;;5072545;28;20446;-77
2022/09/26 02:45:13;;;;;;;7.10;3.73;;;11.90;99.90;;;;;;5072672;28;20526;-76
2022/09/26 02:48:11;;;;;;;3.90;3.60;;;11.80;99.90;;;;;;5072305;28;20392;-76
2022/09/26 02:50:36;;;;;;;7.80;3.30;;;11.80;99.90;;;;;;5072033;28;20496;-76
2022/09/26 02:53:37;;;;;;;5.73;3.10;;;11.90;99.90;;;;;;5072101;28;20833;-77
2022/09/26 02:56:17;;;;;;;4.43;4.00;;;11.90;99.90;;;;;;5053895;28;20167;-75
2022/09/26 02:58:58;;;;;;;10.50;4.07;;;11.90;99.90;;;;;;5072428;28;20448;-78
2022/09/26 03:01:38;;;;;;;5.17;3.90;;;11.80;99.90;;;;;;5073036;28;20400;-77
2022/09/26 03:04:17;;;;;;;8.87;3.23;;;11.90;99.90;;;;;;5072253;28;20444;-77
2022/09/26 03:06:47;;;;;;;3.77;3.20;;;11.90;99.90;;;;;;5073973;28;20431;-78
2022/09/26 03:09:14;;;;;;;3.33;3.03;;;11.90;99.90;;;;;;5075684;28;20421;-77
2022/09/26 03:11:41;;;;;;;4.30;3.63;;;11.80;99.90;;;;;;5075835;28;20412;-78
2022/09/26 03:14:09;;;;;;;6.13;3.77;;;11.80;99.90;;;;;;5074617;28;20409;-77
2022/09/26 03:16:38;;;;;;;5.13;4.17;;;11.80;99.90;;;;;;5075798;28;20416;-77
2022/09/26 03:19:14;;;;;;;4.10;3.03;;;11.80;99.90;;;;;;5076927;28;20925;-76
2022/09/26 03:21:40;;;;;;;3.73;3.33;;;11.80;99.90;;;;;;5077112;28;20503;-77
2022/09/26 03:24:06;;;;;;;3.00;2.33;;;11.80;99.90;;;;;;5076790;28;20509;-77
2022/09/26 03:26:33;;;;;;;4.47;3.10;;;11.80;99.90;;;;;;5076775;28;20167;-76
2022/09/26 03:28:58;;;;;;;6.10;2.93;;;11.80;99.90;;;;;;5076819;28;20655;-77
2022/09/26 03:31:24;;;;;;;4.20;2.87;;;11.80;99.90;;;;;;5059062;28;20413;-77
2022/09/26 03:33:53;;;;;;;4.17;2.57;;;11.80;99.90;;;;;;5076997;28;20535;-77
2022/09/26 03:36:21;;;;;;;4.43;2.90;;;11.80;99.90;;;;;;5076873;28;20162;-76
2022/09/26 03:38:46;;;;;;;3.60;2.50;;;11.80;99.90;;;;;;5057327;28;20511;-76
2022/09/26 03:41:12;;;;;;;5.63;2.87;;;11.80;99.90;;;;;;5075978;28;20443;-77
2022/09/26 03:43:42;;;;;;;7.43;3.07;;;11.80;99.90;;;;;;5076080;28;20239;-77
2022/09/26 03:46:14;;;;;;;4.23;3.30;;;11.80;99.90;;;;;;5058279;28;20166;-77
2022/09/26 03:48:40;;;;;;;4.23;2.77;;;11.80;99.90;;;;;;5076800;28;20444;-77
2022/09/26 03:51:12;;;;;;;6.20;3.40;;;11.80;99.90;;;;;;5076433;28;20618;-77
2022/09/26 03:53:40;;;;;;;6.43;3.10;;;11.70;99.90;;;;;;5079548;28;20170;-78
2022/09/26 03:56:08;;;;;;;5.03;3.87;;;11.80;99.90;;;;;;5078447;28;20438;-77
2022/09/26 03:58:34;;;;;;;8.40;4.23;;;11.80;99.90;;;;;;5080972;28;20424;-78
2022/09/26 04:01:09;;;;;;;4.57;3.53;;;11.80;99.90;;;;;;5082311;28;20423;-77
2022/09/26 04:03:36;;;;;;;4.90;3.30;;;11.70;99.90;;;;;;5082702;28;20223;-78
2022/09/26 04:06:02;;;;;;;4.50;3.47;;;11.80;99.90;;;;;;5082157;28;20452;-77
2022/09/26 04:08:28;;;;;;;4.53;2.90;;;11.80;99.90;;;;;;5081967;28;20432;-78
2022/09/26 04:11:06;;;;;;;4.40;3.30;;;11.80;99.90;;;;;;5081149;28;20401;-78
2022/09/26 04:13:32;;;;;;;4.23;2.37;;;11.70;99.90;;;;;;5081579;28;20172;-77
2022/09/26 04:15:59;;;;;;;4.40;2.90;;;11.70;99.90;;;;;;5080735;28;20480;-78
2022/09/26 04:18:26;;;;;;;4.90;3.10;;;11.70;99.90;;;;;;5062737;28;20432;-77
2022/09/26 04:20:59;;;;;;;6.40;3.30;;;11.70;99.90;;;;;;5081214;28;20408;-77
2022/09/26 04:23:32;;;;;;;4.47;3.47;;;11.70;99.90;;;;;;5080435;28;20787;-78
2022/09/26 04:26:10;;;;;;;5.97;3.77;;;11.60;99.90;;;;;;5080549;28;20448;-78
2022/09/26 04:28:36;;;;;;;4.37;3.77;;;11.50;99.90;;;;;;5080475;28;20424;-77
2022/09/26 04:31:03;;;;;;;5.40;3.17;;;11.50;99.90;;;;;;5081048;28;20492;-77
2022/09/26 04:33:31;;;;;;;5.80;3.40;;;11.40;99.90;;;;;;5080423;28;20169;-78
2022/09/26 04:35:59;;;;;;;3.80;2.20;;;11.30;99.90;;;;;;5081175;28;20408;-78
2022/09/26 04:38:32;;;;;;;2.83;2.20;;;11.30;99.90;;;;;;5080964;28;20435;-78
2022/09/26 04:41:03;;;;;;;4.00;3.00;;;11.30;99.90;;;;;;5081852;28;20978;-77
2022/09/26 04:43:28;;;;;;;4.90;2.30;;;11.20;99.90;;;;;;5080730;28;20400;-78
2022/09/26 04:45:54;;;;;;;6.00;2.63;;;11.20;99.90;;;;;;5080749;28;20477;-77
2022/09/26 04:48:20;;;;;;;3.03;2.00;;;11.20;99.90;;;;;;5080528;28;20210;-78
2022/09/26 04:50:46;;;;;;;5.27;3.43;;;11.20;99.90;;;;;;5058846;23;20238;-72
2022/09/26 04:53:12;;;;;;;5.17;2.20;;;11.20;99.90;;;;;;5033299;28;20777;-72
2022/09/26 04:55:41;;;;;;;2.60;2.40;;;11.10;99.90;;;;;;5033304;28;20547;-71
2022/09/26 04:58:07;;;;;;;3.40;2.60;;;11.10;99.90;;;;;;5033432;28;20422;-71
2022/09/26 05:00:32;;;;;;;4.50;2.57;;;11.00;99.90;;;;;;5033211;28;20429;-71
2022/09/26 05:02:58;;;;;;;2.97;2.70;;;11.00;99.90;;;;;;5033232;28;20171;-71
2022/09/26 05:05:24;;;;;;;2.60;2.40;;;11.00;99.90;;;;;;5033257;28;20334;-71
2022/09/26 05:07:49;;;;;;;3.70;3.23;;;10.90;99.90;;;;;;5033200;28;20834;-72
2022/09/26 05:10:15;;;;;;;3.60;2.57;;;10.90;99.90;;;;;;5033104;28;20188;-72
2022/09/26 05:12:40;;;;;;;3.30;2.57;;;10.90;99.90;;;;;;5033060;28;20202;-72
2022/09/26 05:15:08;;;;;;;2.90;2.60;;;10.90;99.90;;;;;;5034744;28;20167;-71
2022/09/26 05:17:35;;;;;;;3.17;2.87;;;10.90;99.90;;;;;;5035261;28;20198;-71
2022/09/26 05:20:02;;;;;;;4.20;2.60;;;10.90;99.90;;;;;;5032988;28;21007;-72
2022/09/26 05:22:30;;;;;;;5.37;3.70;;;10.90;99.90;;;;;;5015275;28;20791;-71
2022/09/26 05:27:39;;;;;;;3.60;2.93;;;11.00;99.90;;;;;;5032901;28;20463;-71
2022/09/26 05:30:06;;;;;;;7.33;3.10;;;11.00;99.90;;;;;;5032830;28;20976;-72
2022/09/26 05:32:31;;;;;;;8.67;2.80;;;11.10;99.90;;;;;;5033104;28;20544;-72
2022/09/26 05:34:57;;;;;;;3.70;2.97;;;11.10;99.90;;;;;;5032749;28;20510;-71
2022/09/26 05:37:22;;;;;;;3.90;3.27;;;11.10;99.90;;;;;;5032828;28;20172;-71
2022/09/26 05:42:32;;;;;;;2.93;2.63;;;11.20;99.90;;;;;;5023349;28;20273;-71
2022/09/26 05:45:00;;;;;;;5.23;2.97;;;11.20;99.90;;;;;;5032246;28;20446;-71
2022/09/26 05:47:27;;;;;;;3.50;3.20;;;11.30;99.90;;;;;;5032354;28;20556;-71
2022/09/26 05:49:53;;;;;;;5.53;3.70;;;11.30;99.90;;;;;;5031978;28;20976;-70
2022/09/26 05:52:21;;;;;;;3.40;3.10;;;11.40;99.90;;;;;;5032287;28;20505;-71
2022/09/26 05:54:47;;;;;;;9.10;3.47;;;11.40;99.90;;;;;;5032231;28;20417;-71
2022/09/26 05:57:12;;;;;;;6.67;4.70;;;11.50;99.90;;;;;;5032004;28;20472;-71
2022/09/26 05:59:38;;;;;;;4.70;3.20;;;12.40;99.90;;;;;;5032148;28;20422;-70
2022/09/26 06:02:05;;;;;;;3.03;2.70;;;12.60;99.90;;;;;;5032145;28;20254;-71
2022/09/26 06:04:31;;;;;;;3.53;2.90;;;12.40;99.90;;;;;;5031814;28;20533;-72
2022/09/26 06:06:56;;;;;;;2.50;2.30;;;12.50;99.90;;;;;;5031881;28;20409;-71
2022/09/26 06:09:22;;;;;;;4.63;3.10;;;12.30;99.90;;;;;;5036685;28;20191;-71
2022/09/26 06:11:47;;;;;;;3.70;2.53;;;12.40;99.90;;;;;;5051769;28;20171;-71
2022/09/26 06:14:13;;;;;;;3.50;2.50;;;12.50;99.90;;;;;;5046403;28;20174;-72
2022/09/26 06:16:39;;;;;;;7.40;3.00;;;12.60;99.90;;;;;;5031660;28;20206;-71
2022/09/26 06:19:04;;;;;;;3.10;2.53;;;12.60;99.90;;;;;;5031718;28;20696;-71
2022/09/26 06:21:30;;;;;;;2.87;2.63;;;12.90;99.90;;;;;;5030494;28;20280;-71
2022/09/26 06:23:55;;;;;;;3.70;2.83;;;12.90;99.90;;;;;;5031890;28;20890;-71
2022/09/26 06:26:24;;;;;;;3.13;2.37;;;13.00;99.90;;;;;;5031468;28;20532;-71
2022/09/26 06:28:58;;;;;;;4.10;2.50;;;13.50;99.90;;;;;;5031466;28;20168;-71
2022/09/26 06:31:24;;;;;;;3.63;2.50;;;13.80;99.90;;;;;;5031557;28;20753;-71
2022/09/26 06:33:52;;;;;;;5.00;2.03;;;14.10;99.90;;;;;;5031479;28;20416;-71
2022/09/26 06:36:18;;;;;;;2.17;1.97;;;14.30;99.90;;;;;;5031302;28;20461;-71
2022/09/26 06:38:43;;;;;;;3.03;2.30;;;14.30;99.90;;;;;;5031374;28;20429;-71
2022/09/26 06:41:09;;;;;;;1.70;1.60;;;14.30;99.90;;;;;;5031362;28;20830;-71
2022/09/26 06:43:34;;;;;;;2.33;2.10;;;14.60;99.90;;;;;;5031370;28;20241;-71
2022/09/26 06:46:00;;;;;;;2.20;2.00;;;15.10;99.90;;;;;;5031097;28;20198;-72
2022/09/26 06:48:26;;;;;;;2.70;2.17;;;15.30;99.90;;;;;;5031031;28;20174;-71
2022/09/26 06:50:53;;;;;;;2.47;2.17;;;15.20;99.90;;;;;;5031021;28;20592;-71
2022/09/26 06:53:19;;;;;;;2.50;2.30;;;15.20;99.90;;;;;;5031218;28;20162;-72
2022/09/26 06:55:45;;;;;;;4.50;2.37;;;15.20;99.90;;;;;;5031004;28;20489;-71
2022/09/26 06:58:10;;;;;;;3.50;1.60;;;15.20;99.90;;;;;;5031193;28;20179;-71
2022/09/26 07:00:36;;;;;;;4.00;2.00;;;15.60;99.90;;;;;;5031087;28;20311;-72
2022/09/26 07:03:01;;;;;;;3.33;1.80;;;15.50;99.90;;;;;;5031048;28;20497;-72
2022/09/26 07:05:27;;;;;;;3.70;1.83;;;15.70;99.90;;;;;;5030996;28;20230;-72
2022/09/26 07:07:54;;;;;;;2.27;2.10;;;16.00;99.90;;;;;;5031282;28;20172;-72
2022/09/26 07:10:20;;;;;;;2.50;2.20;;;15.90;99.90;;;;;;5013480;28;20212;-72
2022/09/26 07:12:47;;;;;;;4.60;2.03;;;16.20;99.90;;;;;;5031118;28;20417;-72
2022/09/26 07:15:16;;;;;;;2.90;2.47;;;15.90;99.90;;;;;;5030970;28;20576;-72
2022/09/26 07:17:43;;;;;;;2.20;2.00;;;16.30;99.90;;;;;;5031065;28;20399;-72
2022/09/26 07:20:14;;;;;;;2.27;1.80;;;16.30;99.90;;;;;;5031203;28;20787;-71
2022/09/26 07:22:42;;;;;;;4.60;2.33;;;16.50;99.90;;;;;;5031241;28;20396;-71
2022/09/26 07:25:09;;;;;;;2.97;2.33;;;17.10;99.90;;;;;;5031050;28;20966;-71
2022/09/26 07:27:35;;;;;;;3.37;2.97;;;16.70;99.90;;;;;;5031248;28;20408;-72
2022/09/26 07:30:01;;;;;;;4.73;3.43;;;16.30;99.90;;;;;;5030824;28;20778;-72
2022/09/26 07:32:29;;;;;;;4.53;2.87;;;16.20;99.90;;;;;;5031068;28;20282;-72
2022/09/26 07:34:54;;;;;;;5.73;2.73;;;16.40;99.90;;;;;;5030954;28;20490;-72
2022/09/26 07:37:21;;;;;;;3.10;2.30;;;16.80;99.90;;;;;;5031323;28;20414;-71
2022/09/26 07:39:46;;;;;;;3.17;2.10;;;16.80;99.90;;;;;;5031048;28;20194;-71
2022/09/26 07:42:13;;;;;;;4.20;2.90;;;17.20;99.90;;;;;;5030956;28;20425;-71
2022/09/26 07:44:39;;;;;;;3.27;2.80;;;17.40;99.90;;;;;;5030698;28;20183;-71
2022/09/26 07:52:33;;;;;;;5.83;2.40;;;18.10;99.90;;;;;;5030867;28;20402;-71
2022/09/26 07:54:58;;;;;;;2.80;2.43;;;18.00;99.90;;;;;;5030595;28;20492;-71
2022/09/26 07:57:24;;;;;;;2.50;1.77;;;18.20;99.90;;;;;;5030837;28;20176;-71
2022/09/26 07:59:50;;;;;;;2.80;2.53;;;18.60;99.90;;;;;;5030640;28;20191;-71
2022/09/26 08:02:25;;;;;;;3.47;2.67;;;17.80;99.90;;;;;;5032768;28;20414;-72
2022/09/26 08:04:53;;;;;;;4.50;2.20;;;17.70;99.90;;;;;;5033961;28;20502;-72
2022/09/26 08:07:19;;;;;;;3.80;1.70;;;17.30;99.90;;;;;;5034248;28;20901;-71
2022/09/26 08:09:45;;;;;;;4.00;1.90;;;17.00;99.90;;;;;;5034074;28;21020;-71
2022/09/26 08:12:11;;;;;;;3.20;2.10;;;16.70;99.90;;;;;;5034132;28;20495;-71
2022/09/26 08:14:36;;;;;;;2.00;1.80;;;16.80;99.90;;;;;;5034020;28;20184;-72
2022/09/26 08:17:02;;;;;;;2.10;1.90;;;17.40;99.90;;;;;;5034063;28;20181;-71
2022/09/26 08:19:28;;;;;;;4.73;1.57;;;16.80;99.90;;;;;;5034059;28;20738;-71
2022/09/26 08:21:54;;;;;;;2.33;1.33;;;16.80;99.90;;;;;;5033968;28;20438;-72
2022/09/26 08:24:19;;;;;;;7.27;2.17;;;17.60;99.90;;;;;;5033700;28;20205;-72
2022/09/26 08:26:45;;;;;;;4.60;1.70;;;18.20;99.90;;;;;;5033737;28;20789;-71
2022/09/26 08:29:11;;;;;;;4.27;1.73;;;17.60;99.90;;;;;;5033740;28;20194;-71
2022/09/26 08:31:37;;;;;;;1.93;1.83;;;17.50;99.90;;;;;;5033945;28;20539;-72
2022/09/26 08:34:06;;;;;;;1.87;1.67;;;17.60;99.90;;;;;;5034136;28;20485;-71
2022/09/26 08:36:35;;;;;;;1.40;1.30;;;17.60;99.90;;;;;;5033783;28;20406;-72
2022/09/26 08:39:02;;;;;;;3.90;1.80;;;17.50;99.90;;;;;;5033744;28;20939;-72
2022/09/26 08:41:52;;;;;;;1.60;1.20;;;17.80;99.90;;;;;;5033706;28;20972;-72
2022/09/26 08:44:57;;;;;;;3.60;1.13;;;18.20;99.90;;;;;;5033530;28;20442;-71
2022/09/26 08:47:43;;;;;;;2.33;1.53;;;17.80;99.90;;;;;;5033537;28;20908;-71
2022/09/26 08:50:36;;;;;;;3.53;1.10;;;17.50;99.90;;;;;;5033219;28;20433;-71
2022/09/26 08:53:05;;;;;;;4.03;1.47;;;17.80;99.90;;;;;;5033476;28;20405;-71
2022/09/26 08:55:39;;;;;;;1.87;1.60;;;17.40;99.90;;;;;;5033258;28;20447;-71
2022/09/26 08:58:17;;;;;;;2.13;1.30;;;17.40;99.90;;;;;;5033435;28;20473;-71
2022/09/26 09:00:44;;;;;;;2.30;1.70;;;17.10;99.90;;;;;;5033325;28;20422;-72
2022/09/26 09:03:23;;;;;;;2.20;1.03;;;17.10;99.90;;;;;;5033239;28;20417;-72
2022/09/26 09:06:00;;;;;;;2.03;1.57;;;17.30;99.90;;;;;;5015192;28;20445;-71
2022/09/26 09:08:37;;;;;;;2.80;1.10;;;17.80;99.90;;;;;;5032912;28;20761;-72
2022/09/26 09:11:30;;;;;;;2.97;1.10;;;18.40;99.90;;;;;;5032976;28;20395;-71
2022/09/26 09:14:26;;;;;;;1.43;1.33;;;18.90;99.90;;;;;;5014250;28;20419;-71
2022/09/26 09:16:52;;;;;;;2.33;1.13;;;18.90;99.90;;;;;;5032707;28;20405;-71
2022/09/26 09:19:20;;;;;;;2.23;1.37;;;18.40;99.90;;;;;;5032980;28;20440;-71
2022/09/26 09:22:15;;;;;;;1.57;1.30;;;18.40;99.90;;;;;;5032904;28;20209;-71
2022/09/26 09:24:57;;;;;;;2.00;1.20;;;17.60;99.90;;;;;;5032395;28;20438;-71
2022/09/26 09:27:55;;;;;;;3.90;0.93;;;17.60;99.90;;;;;;5032840;28;20449;-71
2022/09/26 09:30:23;;;;;;;1.00;0.77;;;17.20;99.90;;;;;;5032628;28;20433;-71
2022/09/26 09:33:02;;;;;;;0.90;0.90;;;16.90;99.90;;;;;;5032535;28;20824;-71
2022/09/26 09:35:48;;;;;;;2.40;1.30;;;17.60;99.90;;;;;;5032384;28;20470;-71
2022/09/26 09:38:26;;;;;;;2.73;1.20;;;17.40;99.90;;;;;;5032540;28;20492;-71
2022/09/26 09:40:56;;;;;;;1.27;1.00;;;16.60;99.90;;;;;;5032322;28;20455;-71
2022/09/26 09:43:33;;;;;;;1.73;1.20;;;16.80;99.90;;;;;;5032457;28;20429;-72
2022/09/26 09:46:10;;;;;;;1.83;1.00;;;16.60;99.90;;;;;;5034693;28;20444;-71
2022/09/26 09:48:35;;;;;;;3.40;1.30;;;16.80;99.90;;;;;;5038373;28;20427;-71
2022/09/26 09:51:01;;;;;;;1.00;0.90;;;16.50;99.90;;;;;;5037183;28;20424;-72
2022/09/26 09:53:49;;;;;;;1.00;0.77;;;16.30;99.90;;;;;;5032480;28;20177;-72
2022/09/26 09:56:41;;;;;;;0.90;0.80;;;16.30;99.90;;;;;;5032165;28;20166;-71
2022/09/26 09:59:15;;;;;;;1.30;0.90;;;16.50;99.90;;;;;;5031946;28;20433;-71
2022/09/26 10:01:45;;;;;;;3.70;1.23;;;16.50;99.90;;;;;;5032124;28;20412;-71
2022/09/26 10:04:47;;;;;;;1.60;1.00;;;16.50;99.90;;;;;;5031709;28;20843;-71
2022/09/26 10:07:13;;;;;;;2.23;1.00;;;16.80;99.90;;;;;;5011227;28;20407;-72
2022/09/26 10:09:41;;;;;;;0.80;0.80;;;17.00;99.90;;;;;;5014213;28;20425;-71
2022/09/26 10:12:22;;;;;;;2.10;1.00;;;17.10;99.90;;;;;;5014435;28;20173;-71
2022/09/26 10:14:55;;;;;;;1.47;0.87;;;16.80;99.90;;;;;;5032033;28;20505;-71
2022/09/26 10:17:22;;;;;;;1.73;0.97;;;17.20;99.90;;;;;;5031942;28;20429;-71
2022/09/26 10:19:48;;;;;;;1.00;0.90;;;17.30;99.90;;;;;;5031943;28;20418;-72
2022/09/26 10:22:28;;;;;;;1.33;0.97;;;17.10;99.90;;;;;;5032121;28;20405;-71
2022/09/26 10:25:07;;;;;;;1.80;1.27;;;17.00;99.90;;;;;;5031473;28;20851;-71
2022/09/26 10:27:44;;;;;;;2.30;1.20;;;16.80;99.90;;;;;;5031874;28;20439;-71
2022/09/26 10:30:16;;;;;;;1.30;1.20;;;16.80;99.90;;;;;;5031827;28;20413;-71
2022/09/26 10:32:46;;;;;;;1.83;1.10;;;16.70;99.90;;;;;;5031816;28;20953;-71
2022/09/26 10:35:18;;;;;;;3.83;0.87;;;16.50;99.90;;;;;;5013956;28;20420;-70
2022/09/26 10:37:56;;;;;;;1.50;1.10;;;16.40;99.90;;;;;;5031889;28;20390;-71
2022/09/26 10:43:19;;;;;;;1.37;1.10;;;16.60;99.90;;;;;;5031814;28;20454;-70
2022/09/26 10:45:46;;;;;;;1.20;1.03;;;16.70;99.90;;;;;;5031523;28;20466;-71
2022/09/26 10:48:11;;;;;;;2.37;1.30;;;16.80;99.90;;;;;;5032200;28;20470;-72
2022/09/26 10:50:38;;;;;;;1.70;1.10;;;17.10;99.90;;;;;;5044411;23;20484;-78
2022/09/26 10:53:08;;;;;;;3.90;1.53;;;17.00;99.90;;;;;;5031753;28;20657;-78
2022/09/26 10:55:46;;;;;;;1.83;1.13;;;16.90;99.90;;;;;;5031620;28;20420;-78
2022/09/26 10:58:22;;;;;;;1.43;1.10;;;16.80;99.90;;;;;;5031946;28;20488;-79
2022/09/26 11:00:50;;;;;;;1.00;0.90;;;16.90;99.90;;;;;;5032341;28;20418;-78
2022/09/26 11:03:22;;;;;;;3.73;1.43;;;16.80;99.90;;;;;;5032805;28;20395;-78
2022/09/26 11:05:56;;;;;;;2.60;1.20;;;16.70;99.90;;;;;;5031652;28;20483;-78
2022/09/26 11:08:49;;;;;;;2.23;1.20;;;16.60;99.90;;;;;;5032303;28;20408;-78
2022/09/26 11:11:16;;;;;;;3.13;1.17;;;16.60;99.90;;;;;;5031498;28;20441;-79
2022/09/26 11:13:54;;;;;;;0.87;0.80;;;16.70;99.90;;;;;;5031967;28;20409;-77
2022/09/26 11:16:20;;;;;;;2.37;1.00;;;16.60;99.90;;;;;;5013818;28;20439;-78
2022/09/26 11:18:57;;;;;;;1.20;1.00;;;16.80;99.90;;;;;;5013939;28;20402;-78
2022/09/26 11:21:34;;;;;;;1.27;1.17;;;16.70;99.90;;;;;;5031752;28;20188;-79
2022/09/26 11:24:22;;;;;;;1.00;0.90;;;16.60;99.90;;;;;;5031815;28;20415;-78
2022/09/26 11:27:26;;;;;;;2.07;1.30;;;16.60;99.90;;;;;;5023094;28;20424;-78
2022/09/26 11:29:54;;;;;;;1.27;1.17;;;16.50;99.90;;;;;;5031475;28;20408;-78
2022/09/26 11:32:27;;;;;;;2.10;1.10;;;16.90;99.90;;;;;;5031716;28;20423;-78
2022/09/26 11:34:53;;;;;;;1.37;1.10;;;16.90;99.90;;;;;;5031468;28;20401;-78
2022/09/26 11:37:30;;;;;;;1.43;0.90;;;16.90;99.90;;;;;;5016053;28;20446;-78
2022/09/26 11:40:33;;;;;;;1.20;1.10;;;17.10;99.90;;;;;;5034974;28;20463;-78
2022/09/26 11:43:07;;;;;;;1.50;0.90;;;17.40;99.90;;;;;;5015402;28;20412;-77
2022/09/26 11:45:51;;;;;;;1.60;1.50;;;17.50;99.90;;;;;;5029654;28;20984;-79
2022/09/26 11:48:41;;;;;;;1.20;1.00;;;17.30;99.90;;;;;;5035594;28;20406;-78
2022/09/26 11:51:18;;;;;;;2.60;1.10;;;17.20;99.90;;;;;;5035490;28;20435;-76
2022/09/26 11:54:05;;;;;;;2.20;1.17;;;17.10;99.90;;;;;;5036010;28;20424;-79
2022/09/26 11:56:41;;;;;;;1.00;0.90;;;17.20;99.90;;;;;;5036827;28;20439;-79
2022/09/26 11:59:18;;;;;;;2.10;1.23;;;17.20;99.90;;;;;;5036716;28;20410;-79
2022/09/26 12:01:53;;;;;;;2.60;1.13;;;17.30;99.90;;;;;;5036413;28;20456;-78
2022/09/26 12:04:31;;;;;;;3.80;1.20;;;17.30;99.90;;;;;;5035195;28;20449;-78
2022/09/26 12:07:19;;;;;;;1.50;0.80;;;17.40;99.90;;;;;;5033146;28;20419;-78
2022/09/26 12:10:03;;;;;;;1.50;1.10;;;17.20;99.90;;;;;;5034848;28;20421;-77
2022/09/26 12:12:36;;;;;;;37.77;23.73;;;17.20;99.90;;;;;;5035073;28;20425;-76
2022/09/26 12:15:20;;;;;;;14.67;9.00;;;17.10;99.90;;;;;;5034517;28;20558;-76
2022/09/26 12:18:17;;;;;;;3.47;2.50;;;17.20;99.90;;;;;;5034726;28;20410;-75
2022/09/26 12:21:15;;;;;;;67.40;46.87;;;17.20;99.90;;;;;;5034914;28;20460;-76
2022/09/26 12:23:56;;;;;;;5.37;3.53;;;17.60;99.90;;;;;;5034532;28;20412;-76
2022/09/26 12:26:48;;;;;;;3.70;2.23;;;17.80;99.90;;;;;;5034464;28;20405;-76
2022/09/26 12:29:20;;;;;;;33.07;19.17;;;17.90;99.90;;;;;;5035016;28;20406;-76
2022/09/26 12:32:22;;;;;;;86.40;54.20;;;17.90;99.90;;;;;;5035274;28;21003;-76
2022/09/26 12:34:54;;;;;;;4.73;4.33;;;17.80;99.90;;;;;;5044950;28;20409;-76
2022/09/26 12:37:39;;;;;;;11.37;6.33;;;17.50;99.90;;;;;;5037623;28;20414;-76
2022/09/26 12:40:34;;;;;;;62.03;38.77;;;17.40;99.90;;;;;;5034461;28;20441;-76
2022/09/26 12:43:23;;;;;;;4.30;2.60;;;17.60;99.90;;;;;;5034493;28;20425;-75
2022/09/26 12:46:20;;;;;;;3.03;1.67;;;17.50;99.90;;;;;;5034324;28;20798;-75
2022/09/26 12:49:00;;;;;;;2.00;1.60;;;17.60;99.90;;;;;;5034043;28;20448;-76
2022/09/26 12:51:50;;;;;;;1.37;1.10;;;17.50;99.90;;;;;;5033948;28;20536;-75
2022/09/26 12:54:34;;;;;;;3.90;2.47;;;17.20;99.90;;;;;;5034300;28;20746;-76
2022/09/26 12:57:10;;;;;;;19.23;13.60;;;17.10;99.90;;;;;;5033764;28;20417;-76
2022/09/26 12:59:51;;;;;;;8.77;5.70;;;17.40;99.90;;;;;;5034040;28;20829;-76
2022/09/26 13:02:39;;;;;;;13.40;6.13;;;17.40;99.90;;;;;;5034011;28;20413;-75
2022/09/26 13:05:29;;;;;;;23.27;17.23;;;17.30;99.90;;;;;;5033750;28;20499;-76
2022/09/26 13:08:09;;;;;;;16.37;10.20;;;17.30;99.90;;;;;;5034061;28;20437;-75
2022/09/26 13:10:58;;;;;;;3.53;2.53;;;17.50;99.90;;;;;;5034130;28;20421;-75
2022/09/26 13:13:46;;;;;;;11.67;7.00;;;17.30;99.90;;;;;;5015922;28;20971;-75
2022/09/26 13:16:36;;;;;;;1.40;1.20;;;17.20;99.90;;;;;;5033464;28;20899;-75
2022/09/26 13:19:16;;;;;;;2.67;2.03;;;17.20;99.90;;;;;;5033682;28;20892;-75
2022/09/26 13:22:03;;;;;;;1.10;1.00;;;17.20;99.90;;;;;;5033583;28;20427;-75
2022/09/26 13:24:47;;;;;;;6.83;4.77;;;17.20;99.90;;;;;;5033627;28;20454;-76
2022/09/26 13:27:19;;;;;;;1.20;1.10;;;17.30;99.90;;;;;;5033511;28;20495;-76
2022/09/26 13:29:56;;;;;;;7.80;4.13;;;17.10;99.90;;;;;;5033380;28;20508;-75